Main page
Satellite images 15-day forecastsClimateMarine weather Cyclones Lightning AirportsFAQ Newsletter About
Weather : Europe Africa North America South America Asia Australia-Oceania Others
Languages Contact

Brussels, Belgium

National

latitude: 50-54N, longitude: 004-32E, elevation: 55 m


METAR: EBBR 231120Z 05009KT CAVOK 26/18 Q1018 NOSIG
short-TAF: out of date (39023 hours)
long-TAF: EBBR 231100Z 2312/2418 06008KT 9999 FEW040 PROB30 TEMPO 2312/2320 08015G35KT 3000 TSRA

Time: 13:53 (11:53 UTC)

Current weather observation

The report was made 33 minutes ago, at 11:20 UTC  
Wind 09 kt from the Northeast
Temperature 26°C
Humidity 61%
Pressure 1018 hPa
Visibility 10 km or more
no clouds below 1500 m and no cumulonimbus

Change units

Forecast

The report was made 26 minutes ago, at 11:27 UTC  
Forecast valid from 23 at 12 UTC to 24 at 18 UTC
Wind 08 kt from the East/Northeast
Visibility 10 km or more
Few clouds at a height of 4000 ft
Probability 30% :
Temporary
from 23 at 12 UTC to 23 at 20 UTC
Wind 15 kt from the East with gusts up to 35 kt
Visibility 3000 m
thunderstorm rain
The information on this site is subject to a disclaimer
Weather : Europe Africa North America South America Asia Australia-Oceania Others
Satellite images 15-day forecastsClimateMarine weather Cyclones Lightning AirportsFAQ Languages Contact Newsletter About